DAL1647 KLAX-KSLC
Flight info
| Callsign | DAL1647 |
|---|---|
| Flight time | 1h 18m |
| Altitude | 35000 |
| Route | ORCKA5 LAS Q70 BLIPP Q842 WINEN MLF QWENN6 |
| Aircraft | A321/M-SDE3FGHIRWY/LB1 |
Departure
| Time | 2026-04-24 20:54 |
|---|---|
| Airport | Los Angeles International Airport (KLAX) |
Arrival
| Time | 2026-04-24 22:12 |
|---|---|
| Airport | Salt Lake City International Airport (KSLC) |
| Time | Latitude | Longitude | Altitude | Speed | Heading |
|---|---|---|---|---|---|
| 2026-04-24 20:29 | 33.94677 | -118.40648 | 96 ft | 0 kts | 263° |
| 2026-04-24 20:30 | 33.94677 | -118.40647 | 95 ft | 0 kts | 263° |
| 2026-04-24 20:46 | 33.94680 | -118.40620 | 93 ft | 4 kts | 263° |
| 2026-04-24 20:46 | 33.94682 | -118.40598 | 92 ft | 4 kts | 263° |
| 2026-04-24 20:46 | 33.94685 | -118.40566 | 91 ft | 4 kts | 263° |
| 2026-04-24 20:47 | 33.94688 | -118.40540 | 91 ft | 0 kts | 263° |
| 2026-04-24 20:47 | 33.94688 | -118.40539 | 91 ft | 0 kts | 263° |
| 2026-04-24 20:49 | 33.94689 | -118.40546 | 93 ft | 4 kts | 274° |
| 2026-04-24 20:49 | 33.94719 | -118.40573 | 93 ft | 5 kts | 343° |
| 2026-04-24 20:49 | 33.94749 | -118.40581 | 94 ft | 5 kts | 348° |
| 2026-04-24 20:50 | 33.94803 | -118.40595 | 95 ft | 9 kts | 348° |
| 2026-04-24 20:50 | 33.94852 | -118.40589 | 94 ft | 7 kts | 38° |
| 2026-04-24 20:50 | 33.94873 | -118.40501 | 95 ft | 14 kts | 83° |
| 2026-04-24 20:50 | 33.94885 | -118.40386 | 94 ft | 13 kts | 83° |
| 2026-04-24 20:51 | 33.94896 | -118.40280 | 94 ft | 12 kts | 83° |
| 2026-04-24 20:51 | 33.94906 | -118.40182 | 95 ft | 11 kts | 83° |
| 2026-04-24 20:51 | 33.94915 | -118.40090 | 95 ft | 11 kts | 83° |
| 2026-04-24 20:51 | 33.94924 | -118.40001 | 93 ft | 10 kts | 83° |
| 2026-04-24 20:52 | 33.94957 | -118.39922 | 94 ft | 11 kts | 32° |
| 2026-04-24 20:52 | 33.95026 | -118.39924 | 95 ft | 9 kts | 324° |
| 2026-04-24 20:52 | 33.95039 | -118.39990 | 94 ft | 7 kts | 263° |
| 2026-04-24 20:52 | 33.95037 | -118.40002 | 93 ft | 0 kts | 263° |
| 2026-04-24 20:53 | 33.95018 | -118.40193 | 101 ft | 57 kts | 263° |
| 2026-04-24 20:53 | 33.94942 | -118.40926 | 97 ft | 117 kts | 263° |
| 2026-04-24 20:53 | 33.94820 | -118.42095 | 97 ft | 162 kts | 263° |
| 2026-04-24 20:53 | 33.94664 | -118.43553 | 322 ft | 179 kts | 262° |
| 2026-04-24 20:54 | 33.94517 | -118.45032 | 947 ft | 177 kts | 261° |
| 2026-04-24 20:54 | 33.94368 | -118.46500 | 1545 ft | 177 kts | 259° |
| 2026-04-24 20:54 | 33.94203 | -118.47984 | 2039 ft | 183 kts | 260° |
| 2026-04-24 20:54 | 33.94012 | -118.49578 | 2148 ft | 203 kts | 258° |
| 2026-04-24 20:55 | 33.93804 | -118.51346 | 2266 ft | 224 kts | 261° |
| 2026-04-24 20:55 | 33.93582 | -118.53323 | 2397 ft | 252 kts | 261° |
| 2026-04-24 20:55 | 33.93341 | -118.55456 | 3031 ft | 260 kts | 261° |
| 2026-04-24 20:55 | 33.93096 | -118.57640 | 3735 ft | 265 kts | 262° |
| 2026-04-24 20:56 | 33.92851 | -118.59843 | 4567 ft | 265 kts | 262° |
| 2026-04-24 20:56 | 33.92611 | -118.62037 | 5413 ft | 264 kts | 262° |
| 2026-04-24 20:56 | 33.92114 | -118.64155 | 6156 ft | 267 kts | 242° |
| 2026-04-24 20:56 | 33.90912 | -118.65863 | 6780 ft | 273 kts | 217° |
| 2026-04-24 20:57 | 33.89170 | -118.66779 | 7440 ft | 279 kts | 191° |
| 2026-04-24 20:57 | 33.87224 | -118.66664 | 8095 ft | 286 kts | 165° |
| 2026-04-24 20:57 | 33.85486 | -118.65472 | 8743 ft | 295 kts | 137° |
| 2026-04-24 20:57 | 33.84381 | -118.63385 | 9412 ft | 302 kts | 109° |
| 2026-04-24 20:58 | 33.84217 | -118.60860 | 10000 ft | 310 kts | 78° |
| 2026-04-24 20:58 | 33.85078 | -118.58469 | 10431 ft | 320 kts | 57° |
| 2026-04-24 20:58 | 33.86303 | -118.56137 | 10589 ft | 340 kts | 56° |
| 2026-04-24 20:58 | 33.87641 | -118.53686 | 10742 ft | 360 kts | 56° |
| 2026-04-24 20:59 | 33.89043 | -118.51142 | 11182 ft | 368 kts | 56° |
| 2026-04-24 20:59 | 33.90457 | -118.48552 | 11741 ft | 373 kts | 56° |
| 2026-04-24 20:59 | 33.91881 | -118.45908 | 12312 ft | 378 kts | 56° |
| 2026-04-24 20:59 | 33.93310 | -118.43240 | 12899 ft | 382 kts | 56° |
| 2026-04-24 21:00 | 33.94780 | -118.40569 | 13460 ft | 387 kts | 54° |
| 2026-04-24 21:00 | 33.96303 | -118.37878 | 13996 ft | 391 kts | 54° |
| 2026-04-24 21:00 | 33.97861 | -118.35161 | 14504 ft | 396 kts | 53° |
| 2026-04-24 21:00 | 33.99437 | -118.32416 | 14988 ft | 401 kts | 53° |
| 2026-04-24 21:01 | 34.01029 | -118.29634 | 15489 ft | 405 kts | 53° |
| 2026-04-24 21:01 | 34.02633 | -118.26820 | 15988 ft | 410 kts | 53° |
| 2026-04-24 21:01 | 34.04250 | -118.23975 | 16486 ft | 414 kts | 53° |
| 2026-04-24 21:01 | 34.05884 | -118.21093 | 16969 ft | 418 kts | 53° |
| 2026-04-24 21:02 | 34.07436 | -118.18350 | 17418 ft | 423 kts | 53° |
| 2026-04-24 21:02 | 34.08699 | -118.16116 | 17784 ft | 426 kts | 53° |
| 2026-04-24 21:02 | 34.10376 | -118.13147 | 18245 ft | 430 kts | 53° |
| 2026-04-24 21:02 | 34.12066 | -118.10151 | 18644 ft | 434 kts | 53° |
| 2026-04-24 21:03 | 34.13772 | -118.07124 | 19045 ft | 438 kts | 53° |
| 2026-04-24 21:03 | 34.15491 | -118.04074 | 19430 ft | 442 kts | 52° |
| 2026-04-24 21:03 | 34.17227 | -118.00995 | 19827 ft | 445 kts | 52° |
| 2026-04-24 21:03 | 34.18978 | -117.97887 | 20213 ft | 449 kts | 52° |
| 2026-04-24 21:04 | 34.20742 | -117.94756 | 20583 ft | 452 kts | 52° |
| 2026-04-24 21:04 | 34.22518 | -117.91600 | 20886 ft | 456 kts | 52° |
| 2026-04-24 21:04 | 34.24305 | -117.88413 | 21240 ft | 460 kts | 52° |
| 2026-04-24 21:04 | 34.26104 | -117.85196 | 21630 ft | 463 kts | 51° |
| 2026-04-24 21:05 | 34.27913 | -117.81960 | 22016 ft | 466 kts | 51° |
| 2026-04-24 21:05 | 34.29734 | -117.78705 | 22404 ft | 469 kts | 51° |
| 2026-04-24 21:05 | 34.31570 | -117.75424 | 22750 ft | 473 kts | 51° |
| 2026-04-24 21:05 | 34.33416 | -117.72122 | 23129 ft | 475 kts | 51° |
| 2026-04-24 21:06 | 34.35274 | -117.68795 | 23494 ft | 478 kts | 50° |
| 2026-04-24 21:06 | 34.37175 | -117.65477 | 23795 ft | 481 kts | 49° |
| 2026-04-24 21:06 | 34.39128 | -117.62184 | 24098 ft | 482 kts | 48° |
| 2026-04-24 21:06 | 34.41119 | -117.58899 | 24384 ft | 485 kts | 48° |
| 2026-04-24 21:07 | 34.43128 | -117.55607 | 24673 ft | 488 kts | 48° |
| 2026-04-24 21:07 | 34.45147 | -117.52286 | 24991 ft | 491 kts | 48° |
| 2026-04-24 21:07 | 34.47168 | -117.48937 | 25336 ft | 494 kts | 49° |
| 2026-04-24 21:07 | 34.49186 | -117.45564 | 25633 ft | 496 kts | 49° |
| 2026-04-24 21:08 | 34.51210 | -117.42155 | 25933 ft | 499 kts | 49° |
| 2026-04-24 21:08 | 34.52694 | -117.39645 | 26142 ft | 501 kts | 50° |
| 2026-04-24 21:08 | 34.53093 | -117.38971 | 26197 ft | 501 kts | 50° |
| 2026-04-24 21:08 | 34.55128 | -117.35523 | 26480 ft | 504 kts | 50° |
| 2026-04-24 21:09 | 34.57174 | -117.32060 | 26759 ft | 506 kts | 50° |
| 2026-04-24 21:09 | 34.59231 | -117.28576 | 27040 ft | 509 kts | 50° |
| 2026-04-24 21:09 | 34.61298 | -117.25072 | 27306 ft | 511 kts | 50° |
| 2026-04-24 21:09 | 34.63373 | -117.21554 | 27564 ft | 514 kts | 50° |
| 2026-04-24 21:10 | 34.65461 | -117.18018 | 27749 ft | 516 kts | 50° |
| 2026-04-24 21:10 | 34.67559 | -117.14463 | 28019 ft | 519 kts | 50° |
| 2026-04-24 21:10 | 34.69668 | -117.10891 | 28284 ft | 521 kts | 50° |
| 2026-04-24 21:10 | 34.71781 | -117.07304 | 28521 ft | 524 kts | 50° |
| 2026-04-24 21:11 | 34.73903 | -117.03692 | 28769 ft | 526 kts | 50° |
| 2026-04-24 21:11 | 34.76034 | -117.00065 | 29009 ft | 528 kts | 50° |
| 2026-04-24 21:11 | 34.78172 | -116.96423 | 29252 ft | 530 kts | 50° |
| 2026-04-24 21:11 | 34.80317 | -116.92762 | 29504 ft | 533 kts | 50° |
| 2026-04-24 21:12 | 34.82469 | -116.89087 | 29765 ft | 535 kts | 50° |
| 2026-04-24 21:12 | 34.83902 | -116.86637 | 29920 ft | 537 kts | 50° |
| 2026-04-24 21:12 | 34.86809 | -116.81663 | 30133 ft | 541 kts | 50° |
| 2026-04-24 21:12 | 34.88989 | -116.77924 | 30400 ft | 541 kts | 50° |
| 2026-04-24 21:13 | 34.91170 | -116.74191 | 30690 ft | 540 kts | 49° |
| 2026-04-24 21:13 | 34.93565 | -116.70698 | 30961 ft | 535 kts | 41° |
| 2026-04-24 21:13 | 34.96099 | -116.67378 | 31223 ft | 535 kts | 41° |
| 2026-04-24 21:13 | 34.98631 | -116.64055 | 31493 ft | 535 kts | 41° |
| 2026-04-24 21:14 | 35.01159 | -116.60731 | 31769 ft | 535 kts | 41° |
| 2026-04-24 21:14 | 35.03690 | -116.57392 | 32051 ft | 535 kts | 41° |
| 2026-04-24 21:14 | 35.06216 | -116.54052 | 32336 ft | 536 kts | 41° |
| 2026-04-24 21:14 | 35.08744 | -116.50705 | 32599 ft | 536 kts | 41° |
| 2026-04-24 21:15 | 35.11273 | -116.47356 | 32861 ft | 536 kts | 41° |
| 2026-04-24 21:15 | 35.13803 | -116.44008 | 33146 ft | 536 kts | 41° |
| 2026-04-24 21:15 | 35.16335 | -116.40653 | 33453 ft | 536 kts | 41° |
| 2026-04-24 21:15 | 35.18861 | -116.37305 | 33740 ft | 536 kts | 41° |
| 2026-04-24 21:16 | 35.21386 | -116.33955 | 34026 ft | 535 kts | 41° |
| 2026-04-24 21:16 | 35.23907 | -116.30609 | 34288 ft | 534 kts | 41° |
| 2026-04-24 21:16 | 35.26420 | -116.27269 | 34566 ft | 532 kts | 41° |
| 2026-04-24 21:16 | 35.28922 | -116.23942 | 34783 ft | 531 kts | 42° |
| 2026-04-24 21:17 | 35.33881 | -116.17320 | 34841 ft | 524 kts | 42° |
| 2026-04-24 21:17 | 35.37968 | -116.11855 | 34854 ft | 523 kts | 42° |
| 2026-04-24 21:18 | 35.43708 | -116.04184 | 34853 ft | 522 kts | 42° |
| 2026-04-24 21:18 | 35.48616 | -115.97615 | 34864 ft | 522 kts | 42° |
| 2026-04-24 21:19 | 35.53513 | -115.91020 | 34876 ft | 523 kts | 42° |
| 2026-04-24 21:19 | 35.58410 | -115.84421 | 34872 ft | 523 kts | 42° |
| 2026-04-24 21:20 | 35.65747 | -115.74501 | 34874 ft | 523 kts | 42° |
| 2026-04-24 21:21 | 35.70607 | -115.67827 | 34873 ft | 524 kts | 43° |
| 2026-04-24 21:21 | 35.75450 | -115.61124 | 34877 ft | 524 kts | 43° |
| 2026-04-24 21:22 | 35.80299 | -115.54425 | 34876 ft | 524 kts | 43° |
| 2026-04-24 21:22 | 35.85155 | -115.47718 | 34906 ft | 524 kts | 43° |
| 2026-04-24 21:23 | 35.90005 | -115.41011 | 34900 ft | 524 kts | 43° |
| 2026-04-24 21:23 | 35.94851 | -115.34280 | 34884 ft | 525 kts | 43° |
| 2026-04-24 21:24 | 35.99689 | -115.27546 | 34895 ft | 524 kts | 43° |
| 2026-04-24 21:24 | 36.04525 | -115.20801 | 34868 ft | 524 kts | 43° |
| 2026-04-24 21:25 | 36.09524 | -115.14307 | 34863 ft | 516 kts | 34° |
| 2026-04-24 21:25 | 36.14947 | -115.08486 | 34861 ft | 516 kts | 34° |
| 2026-04-24 21:26 | 36.20364 | -115.02657 | 34827 ft | 516 kts | 34° |
| 2026-04-24 21:26 | 36.25773 | -114.96809 | 34825 ft | 516 kts | 34° |
| 2026-04-24 21:27 | 36.31182 | -114.90966 | 34811 ft | 515 kts | 34° |
| 2026-04-24 21:27 | 36.35674 | -114.86108 | 34799 ft | 515 kts | 34° |
| 2026-04-24 21:28 | 36.41066 | -114.80257 | 34785 ft | 515 kts | 34° |
| 2026-04-24 21:28 | 36.46464 | -114.74393 | 34817 ft | 515 kts | 35° |
| 2026-04-24 21:29 | 36.51844 | -114.68521 | 34794 ft | 513 kts | 35° |
| 2026-04-24 21:29 | 36.57200 | -114.62668 | 34800 ft | 512 kts | 35° |
| 2026-04-24 21:30 | 36.62546 | -114.56828 | 34795 ft | 511 kts | 35° |
| 2026-04-24 21:30 | 36.67883 | -114.50992 | 34805 ft | 511 kts | 35° |
| 2026-04-24 21:31 | 36.73430 | -114.45605 | 34799 ft | 500 kts | 24° |
| 2026-04-24 21:31 | 36.79324 | -114.41001 | 34819 ft | 499 kts | 25° |
| 2026-04-24 21:32 | 36.85203 | -114.36401 | 34826 ft | 498 kts | 25° |
| 2026-04-24 21:32 | 36.91057 | -114.31797 | 34825 ft | 497 kts | 25° |
| 2026-04-24 21:33 | 36.96904 | -114.27189 | 34816 ft | 496 kts | 25° |
| 2026-04-24 21:33 | 37.02752 | -114.22586 | 34849 ft | 496 kts | 26° |
| 2026-04-24 21:34 | 37.08572 | -114.17987 | 34832 ft | 494 kts | 26° |
| 2026-04-24 21:34 | 37.14376 | -114.13380 | 34832 ft | 493 kts | 26° |
| 2026-04-24 21:35 | 37.20166 | -114.08781 | 34837 ft | 492 kts | 26° |
| 2026-04-24 21:35 | 37.25950 | -114.04193 | 34842 ft | 492 kts | 26° |
| 2026-04-24 21:36 | 37.31729 | -113.99595 | 34860 ft | 491 kts | 26° |
| 2026-04-24 21:36 | 37.37486 | -113.94999 | 34849 ft | 490 kts | 27° |
| 2026-04-24 21:37 | 37.43230 | -113.90411 | 34840 ft | 489 kts | 27° |
| 2026-04-24 21:37 | 37.48965 | -113.85822 | 34846 ft | 488 kts | 27° |
| 2026-04-24 21:38 | 37.54690 | -113.81227 | 34861 ft | 488 kts | 27° |
| 2026-04-24 21:38 | 37.60407 | -113.76631 | 34855 ft | 486 kts | 27° |
| 2026-04-24 21:39 | 37.66109 | -113.72037 | 34850 ft | 486 kts | 27° |
| 2026-04-24 21:39 | 37.71760 | -113.67483 | 34841 ft | 484 kts | 27° |
| 2026-04-24 21:40 | 37.77438 | -113.62907 | 34823 ft | 484 kts | 27° |
| 2026-04-24 21:40 | 37.83108 | -113.58317 | 34834 ft | 484 kts | 27° |
| 2026-04-24 21:41 | 37.88764 | -113.53719 | 34813 ft | 483 kts | 27° |
| 2026-04-24 21:41 | 37.94310 | -113.48906 | 34800 ft | 487 kts | 36° |
| 2026-04-24 21:42 | 37.99373 | -113.43179 | 34796 ft | 488 kts | 38° |
| 2026-04-24 21:42 | 38.04425 | -113.37430 | 34791 ft | 488 kts | 37° |
| 2026-04-24 21:43 | 38.09480 | -113.31687 | 34808 ft | 487 kts | 37° |
| 2026-04-24 21:43 | 38.14530 | -113.25948 | 34809 ft | 487 kts | 37° |
| 2026-04-24 21:44 | 38.19566 | -113.20202 | 34830 ft | 486 kts | 37° |
| 2026-04-24 21:44 | 38.24596 | -113.14452 | 34851 ft | 486 kts | 37° |
| 2026-04-24 21:45 | 38.29621 | -113.08701 | 34882 ft | 486 kts | 37° |
| 2026-04-24 21:45 | 38.34695 | -113.03045 | 34893 ft | 482 kts | 31° |
| 2026-04-24 21:46 | 38.40451 | -112.98959 | 34888 ft | 469 kts | 16° |
| 2026-04-24 21:46 | 38.46518 | -112.95750 | 34885 ft | 469 kts | 16° |
| 2026-04-24 21:47 | 38.52506 | -112.92562 | 34867 ft | 469 kts | 16° |
| 2026-04-24 21:47 | 38.58536 | -112.89341 | 34841 ft | 469 kts | 16° |
| 2026-04-24 21:48 | 38.64560 | -112.86113 | 34829 ft | 469 kts | 17° |
| 2026-04-24 21:48 | 38.70572 | -112.82886 | 34774 ft | 468 kts | 17° |
| 2026-04-24 21:49 | 38.76577 | -112.79662 | 34769 ft | 468 kts | 17° |
| 2026-04-24 21:49 | 38.82590 | -112.76424 | 34728 ft | 470 kts | 17° |
| 2026-04-24 21:50 | 38.88624 | -112.73168 | 34742 ft | 471 kts | 17° |
| 2026-04-24 21:50 | 38.94681 | -112.69900 | 34571 ft | 472 kts | 17° |
| 2026-04-24 21:50 | 38.97739 | -112.68251 | 33500 ft | 483 kts | 17° |
| 2026-04-24 21:51 | 39.00860 | -112.66566 | 32456 ft | 489 kts | 18° |
| 2026-04-24 21:51 | 39.03997 | -112.64865 | 31667 ft | 489 kts | 18° |
| 2026-04-24 21:51 | 39.07131 | -112.63158 | 30912 ft | 490 kts | 18° |
| 2026-04-24 21:51 | 39.10274 | -112.61445 | 30178 ft | 490 kts | 18° |
| 2026-04-24 21:52 | 39.13419 | -112.59732 | 29390 ft | 491 kts | 18° |
| 2026-04-24 21:52 | 39.16561 | -112.58022 | 28569 ft | 491 kts | 18° |
| 2026-04-24 21:52 | 39.19704 | -112.56309 | 27753 ft | 490 kts | 18° |
| 2026-04-24 21:52 | 39.22841 | -112.54598 | 26965 ft | 489 kts | 18° |
| 2026-04-24 21:53 | 39.25971 | -112.52889 | 26196 ft | 487 kts | 18° |
| 2026-04-24 21:53 | 39.29086 | -112.51187 | 25455 ft | 486 kts | 19° |
| 2026-04-24 21:53 | 39.32188 | -112.49482 | 24726 ft | 484 kts | 19° |
| 2026-04-24 21:53 | 39.35267 | -112.47746 | 24102 ft | 480 kts | 20° |
| 2026-04-24 21:54 | 39.38254 | -112.46021 | 23915 ft | 456 kts | 20° |
| 2026-04-24 21:54 | 39.41064 | -112.44371 | 23402 ft | 435 kts | 20° |
| 2026-04-24 21:54 | 39.43794 | -112.42775 | 22692 ft | 425 kts | 20° |
| 2026-04-24 21:54 | 39.46436 | -112.41240 | 22268 ft | 409 kts | 19° |
| 2026-04-24 21:55 | 39.49018 | -112.39751 | 21762 ft | 404 kts | 19° |
| 2026-04-24 21:55 | 39.51579 | -112.38280 | 21321 ft | 401 kts | 19° |
| 2026-04-24 21:55 | 39.54126 | -112.36821 | 20879 ft | 399 kts | 19° |
| 2026-04-24 21:55 | 39.56655 | -112.35369 | 20441 ft | 397 kts | 20° |
| 2026-04-24 21:56 | 39.59139 | -112.33942 | 19981 ft | 394 kts | 20° |
| 2026-04-24 21:56 | 39.61632 | -112.32510 | 19645 ft | 388 kts | 20° |
| 2026-04-24 21:56 | 39.64106 | -112.31082 | 19182 ft | 385 kts | 20° |
| 2026-04-24 21:56 | 39.66563 | -112.29661 | 18650 ft | 386 kts | 20° |
| 2026-04-24 21:57 | 39.69005 | -112.28246 | 18224 ft | 383 kts | 20° |
| 2026-04-24 21:57 | 39.71429 | -112.26839 | 17760 ft | 381 kts | 20° |
| 2026-04-24 21:57 | 39.73831 | -112.25445 | 17335 ft | 376 kts | 20° |
| 2026-04-24 21:57 | 39.76198 | -112.24069 | 17025 ft | 369 kts | 20° |
| 2026-04-24 21:58 | 39.78530 | -112.22713 | 16610 ft | 366 kts | 20° |
| 2026-04-24 21:58 | 39.80816 | -112.21382 | 16217 ft | 362 kts | 20° |
| 2026-04-24 21:58 | 39.83107 | -112.20053 | 15800 ft | 359 kts | 20° |
| 2026-04-24 21:58 | 39.85383 | -112.18730 | 15406 ft | 356 kts | 20° |
| 2026-04-24 21:59 | 39.87635 | -112.17421 | 15006 ft | 353 kts | 20° |
| 2026-04-24 21:59 | 39.89872 | -112.16116 | 14609 ft | 351 kts | 20° |
| 2026-04-24 21:59 | 39.92096 | -112.14818 | 14216 ft | 349 kts | 20° |
| 2026-04-24 21:59 | 39.94288 | -112.13537 | 14051 ft | 340 kts | 20° |
| 2026-04-24 22:00 | 39.96415 | -112.12295 | 13918 ft | 330 kts | 20° |
| 2026-04-24 22:00 | 39.98553 | -112.11320 | 13742 ft | 321 kts | 13° |
| 2026-04-24 22:00 | 40.00694 | -112.10483 | 13631 ft | 321 kts | 13° |
| 2026-04-24 22:00 | 40.02828 | -112.09640 | 13476 ft | 320 kts | 14° |
| 2026-04-24 22:01 | 40.04954 | -112.08790 | 13321 ft | 320 kts | 13° |
| 2026-04-24 22:01 | 40.07086 | -112.07937 | 13161 ft | 320 kts | 13° |
| 2026-04-24 22:01 | 40.09215 | -112.07086 | 13028 ft | 319 kts | 13° |
| 2026-04-24 22:01 | 40.11336 | -112.06237 | 12878 ft | 319 kts | 13° |
| 2026-04-24 22:02 | 40.13454 | -112.05387 | 12724 ft | 318 kts | 13° |
| 2026-04-24 22:02 | 40.15564 | -112.04543 | 12587 ft | 317 kts | 13° |
| 2026-04-24 22:02 | 40.17667 | -112.03705 | 12440 ft | 316 kts | 13° |
| 2026-04-24 22:02 | 40.19766 | -112.02868 | 12291 ft | 315 kts | 13° |
| 2026-04-24 22:03 | 40.21855 | -112.02033 | 12147 ft | 314 kts | 13° |
| 2026-04-24 22:03 | 40.23940 | -112.01196 | 11991 ft | 313 kts | 13° |
| 2026-04-24 22:03 | 40.26018 | -112.00359 | 11860 ft | 312 kts | 13° |
| 2026-04-24 22:03 | 40.28100 | -111.99520 | 11687 ft | 314 kts | 13° |
| 2026-04-24 22:04 | 40.30189 | -111.98680 | 11550 ft | 314 kts | 13° |
| 2026-04-24 22:04 | 40.32282 | -111.97841 | 11399 ft | 314 kts | 13° |
| 2026-04-24 22:04 | 40.34367 | -111.97005 | 11247 ft | 312 kts | 13° |
| 2026-04-24 22:04 | 40.36408 | -111.96184 | 11106 ft | 301 kts | 13° |
| 2026-04-24 22:05 | 40.38377 | -111.95390 | 10935 ft | 292 kts | 14° |
| 2026-04-24 22:05 | 40.40328 | -111.94868 | 10739 ft | 281 kts | 357° |
| 2026-04-24 22:05 | 40.42274 | -111.94797 | 10483 ft | 279 kts | 356° |
| 2026-04-24 22:05 | 40.44215 | -111.94735 | 10216 ft | 279 kts | 357° |
| 2026-04-24 22:06 | 40.46149 | -111.94675 | 9943 ft | 277 kts | 357° |
| 2026-04-24 22:06 | 40.48066 | -111.94614 | 9680 ft | 275 kts | 356° |
| 2026-04-24 22:06 | 40.49979 | -111.94553 | 9389 ft | 274 kts | 357° |
| 2026-04-24 22:06 | 40.51875 | -111.94492 | 9116 ft | 270 kts | 356° |
| 2026-04-24 22:07 | 40.53731 | -111.94478 | 8821 ft | 264 kts | 351° |
| 2026-04-24 22:07 | 40.55549 | -111.94735 | 8492 ft | 261 kts | 349° |
| 2026-04-24 22:07 | 40.57365 | -111.94989 | 8172 ft | 258 kts | 351° |
| 2026-04-24 22:07 | 40.59148 | -111.95198 | 7837 ft | 256 kts | 351° |
| 2026-04-24 22:08 | 40.60890 | -111.95396 | 7514 ft | 253 kts | 352° |
| 2026-04-24 22:08 | 40.62624 | -111.95595 | 7192 ft | 248 kts | 352° |
| 2026-04-24 22:08 | 40.64326 | -111.95791 | 6869 ft | 242 kts | 352° |
| 2026-04-24 22:08 | 40.65975 | -111.95982 | 6562 ft | 232 kts | 353° |
| 2026-04-24 22:09 | 40.67048 | -111.96106 | 6353 ft | 226 kts | 354° |
| 2026-04-24 22:09 | 40.68584 | -111.96283 | 6073 ft | 213 kts | 353° |
| 2026-04-24 22:09 | 40.69991 | -111.96444 | 5811 ft | 192 kts | 352° |
| 2026-04-24 22:09 | 40.71234 | -111.96587 | 5544 ft | 169 kts | 352° |
| 2026-04-24 22:10 | 40.72353 | -111.96717 | 5309 ft | 156 kts | 351° |
| 2026-04-24 22:10 | 40.73407 | -111.96840 | 5089 ft | 151 kts | 352° |
| 2026-04-24 22:10 | 40.74445 | -111.96962 | 4878 ft | 150 kts | 352° |
| 2026-04-24 22:10 | 40.75480 | -111.97085 | 4676 ft | 149 kts | 352° |
| 2026-04-24 22:11 | 40.76514 | -111.97207 | 4475 ft | 151 kts | 353° |
| 2026-04-24 22:11 | 40.77541 | -111.97317 | 4296 ft | 147 kts | 353° |
| 2026-04-24 22:11 | 40.78513 | -111.97438 | 4232 ft | 128 kts | 355° |
| 2026-04-24 22:11 | 40.79225 | -111.97520 | 4231 ft | 78 kts | 355° |
| 2026-04-24 22:12 | 40.79597 | -111.97566 | 4229 ft | 29 kts | 354° |
| 2026-04-24 22:12 | 40.79664 | -111.97583 | 4229 ft | 7 kts | 332° |
| 2026-04-24 22:12 | 40.79690 | -111.97654 | 4230 ft | 8 kts | 271° |
| 2026-04-24 22:12 | 40.79687 | -111.97719 | 4230 ft | 6 kts | 265° |
| 2026-04-24 22:13 | 40.79684 | -111.97763 | 4230 ft | 4 kts | 265° |
| 2026-04-24 22:13 | 40.79680 | -111.97831 | 4230 ft | 9 kts | 262° |
| 2026-04-24 22:13 | 40.79640 | -111.97879 | 4231 ft | 10 kts | 190° |
| 2026-04-24 22:13 | 40.79568 | -111.97874 | 4231 ft | 10 kts | 175° |
| 2026-04-24 22:14 | 40.79501 | -111.97866 | 4231 ft | 12 kts | 175° |
| 2026-04-24 22:14 | 40.79392 | -111.97853 | 4231 ft | 16 kts | 175° |
| 2026-04-24 22:14 | 40.79292 | -111.97842 | 4231 ft | 13 kts | 175° |
| 2026-04-24 22:14 | 40.79206 | -111.97832 | 4231 ft | 11 kts | 175° |
| 2026-04-24 22:15 | 40.79132 | -111.97823 | 4231 ft | 11 kts | 175° |
| 2026-04-24 22:15 | 40.79031 | -111.97811 | 4231 ft | 15 kts | 175° |
| 2026-04-24 22:15 | 40.78937 | -111.97800 | 4231 ft | 13 kts | 175° |
| 2026-04-24 22:15 | 40.78859 | -111.97793 | 4231 ft | 8 kts | 184° |
| 2026-04-24 22:16 | 40.78829 | -111.97844 | 4231 ft | 8 kts | 254° |
| 2026-04-24 22:16 | 40.78815 | -111.97957 | 4231 ft | 13 kts | 264° |
| 2026-04-24 22:16 | 40.78807 | -111.98071 | 4231 ft | 12 kts | 264° |
| 2026-04-24 22:16 | 40.78797 | -111.98213 | 4231 ft | 16 kts | 264° |
| 2026-04-24 22:17 | 40.78787 | -111.98350 | 4231 ft | 14 kts | 264° |
| 2026-04-24 22:17 | 40.78778 | -111.98468 | 4231 ft | 12 kts | 264° |
| 2026-04-24 22:17 | 40.78770 | -111.98569 | 4231 ft | 9 kts | 264° |
| 2026-04-24 22:17 | 40.78786 | -111.98602 | 4231 ft | 3 kts | 333° |
| 2026-04-24 22:18 | 40.78821 | -111.98610 | 4231 ft | 3 kts | 353° |
| 2026-04-24 22:18 | 40.78835 | -111.98612 | 4231 ft | 1 kts | 354° |
| 2026-04-24 22:18 | 40.78839 | -111.98613 | 4231 ft | 0 kts | 354° |